sensor_id;sensor_type;location;lat;lon;timestamp;P1;durP1;ratioP1;P2;durP2;ratioP2
10586;SDS011;5341;47.606;7.576;2022-11-23T00:00:47;6.88;;;4.82;;
10586;SDS011;5341;47.606;7.576;2022-11-23T00:03:15;5.78;;;4.63;;
10586;SDS011;5341;47.606;7.576;2022-11-23T00:05:42;7.03;;;4.70;;
10586;SDS011;5341;47.606;7.576;2022-11-23T00:08:10;8.30;;;4.35;;
10586;SDS011;5341;47.606;7.576;2022-11-23T00:10:38;7.22;;;4.88;;
10586;SDS011;5341;47.606;7.576;2022-11-23T00:13:06;5.68;;;3.95;;
10586;SDS011;5341;47.606;7.576;2022-11-23T00:15:33;7.15;;;4.20;;
10586;SDS011;5341;47.606;7.576;2022-11-23T00:18:03;6.57;;;4.30;;
10586;SDS011;5341;47.606;7.576;2022-11-23T00:20:30;7.30;;;4.40;;
10586;SDS011;5341;47.606;7.576;2022-11-23T00:22:58;6.82;;;3.95;;
10586;SDS011;5341;47.606;7.576;2022-11-23T00:25:26;7.22;;;3.92;;
10586;SDS011;5341;47.606;7.576;2022-11-23T00:27:54;5.35;;;3.78;;
10586;SDS011;5341;47.606;7.576;2022-11-23T00:30:22;6.20;;;3.75;;
10586;SDS011;5341;47.606;7.576;2022-11-23T00:32:51;8.02;;;4.10;;
10586;SDS011;5341;47.606;7.576;2022-11-23T00:35:21;5.75;;;3.75;;
10586;SDS011;5341;47.606;7.576;2022-11-23T00:37:53;7.10;;;4.25;;
10586;SDS011;5341;47.606;7.576;2022-11-23T00:40:21;7.20;;;4.00;;
10586;SDS011;5341;47.606;7.576;2022-11-23T00:42:54;6.85;;;3.28;;
10586;SDS011;5341;47.606;7.576;2022-11-23T00:45:28;6.18;;;3.53;;
10586;SDS011;5341;47.606;7.576;2022-11-23T00:47:55;7.07;;;3.58;;
10586;SDS011;5341;47.606;7.576;2022-11-23T00:50:27;4.55;;;3.33;;
10586;SDS011;5341;47.606;7.576;2022-11-23T00:52:55;3.97;;;2.78;;
10586;SDS011;5341;47.606;7.576;2022-11-23T00:55:24;5.65;;;3.50;;
10586;SDS011;5341;47.606;7.576;2022-11-23T00:57:57;5.38;;;3.17;;
10586;SDS011;5341;47.606;7.576;2022-11-23T01:00:30;7.10;;;3.40;;
10586;SDS011;5341;47.606;7.576;2022-11-23T01:03:03;4.10;;;3.33;;
10586;SDS011;5341;47.606;7.576;2022-11-23T01:05:36;6.05;;;3.50;;
10586;SDS011;5341;47.606;7.576;2022-11-23T01:08:07;4.63;;;3.40;;
10586;SDS011;5341;47.606;7.576;2022-11-23T01:10:35;4.55;;;3.00;;
10586;SDS011;5341;47.606;7.576;2022-11-23T01:13:08;5.55;;;3.33;;
10586;SDS011;5341;47.606;7.576;2022-11-23T01:15:37;4.95;;;3.30;;
10586;SDS011;5341;47.606;7.576;2022-11-23T01:18:05;5.15;;;3.10;;
10586;SDS011;5341;47.606;7.576;2022-11-23T01:20:33;4.55;;;3.20;;
10586;SDS011;5341;47.606;7.576;2022-11-23T01:23:03;5.32;;;3.30;;
10586;SDS011;5341;47.606;7.576;2022-11-23T01:25:34;5.35;;;3.05;;
10586;SDS011;5341;47.606;7.576;2022-11-23T01:28:03;7.43;;;3.30;;
10586;SDS011;5341;47.606;7.576;2022-11-23T01:30:31;4.85;;;3.10;;
10586;SDS011;5341;47.606;7.576;2022-11-23T01:33:02;5.95;;;3.00;;
10586;SDS011;5341;47.606;7.576;2022-11-23T01:35:31;4.97;;;3.00;;
10586;SDS011;5341;47.606;7.576;2022-11-23T01:38:02;4.28;;;3.10;;
10586;SDS011;5341;47.606;7.576;2022-11-23T01:40:40;4.88;;;2.92;;
10586;SDS011;5341;47.606;7.576;2022-11-23T01:43:21;4.47;;;2.95;;
10586;SDS011;5341;47.606;7.576;2022-11-23T01:45:55;4.90;;;3.17;;
10586;SDS011;5341;47.606;7.576;2022-11-23T01:48:29;5.20;;;3.15;;
10586;SDS011;5341;47.606;7.576;2022-11-23T01:51:04;4.20;;;2.92;;
10586;SDS011;5341;47.606;7.576;2022-11-23T01:53:36;5.22;;;2.80;;
10586;SDS011;5341;47.606;7.576;2022-11-23T01:56:05;5.00;;;3.08;;
10586;SDS011;5341;47.606;7.576;2022-11-23T01:58:35;6.07;;;3.20;;
10586;SDS011;5341;47.606;7.576;2022-11-23T02:01:06;5.72;;;3.28;;
10586;SDS011;5341;47.606;7.576;2022-11-23T02:03:34;4.68;;;3.10;;
10586;SDS011;5341;47.606;7.576;2022-11-23T02:06:08;3.83;;;2.85;;
10586;SDS011;5341;47.606;7.576;2022-11-23T02:08:42;4.65;;;3.38;;
10586;SDS011;5341;47.606;7.576;2022-11-23T02:11:10;4.80;;;3.15;;
10586;SDS011;5341;47.606;7.576;2022-11-23T02:13:39;3.67;;;3.25;;
10586;SDS011;5341;47.606;7.576;2022-11-23T02:16:08;5.20;;;3.30;;
10586;SDS011;5341;47.606;7.576;2022-11-23T02:18:37;5.32;;;3.00;;
10586;SDS011;5341;47.606;7.576;2022-11-23T02:21:09;6.35;;;3.33;;
10586;SDS011;5341;47.606;7.576;2022-11-23T02:23:39;5.07;;;2.88;;
10586;SDS011;5341;47.606;7.576;2022-11-23T02:26:15;8.23;;;3.50;;
10586;SDS011;5341;47.606;7.576;2022-11-23T02:28:48;4.10;;;3.08;;
10586;SDS011;5341;47.606;7.576;2022-11-23T02:31:20;4.90;;;3.35;;
10586;SDS011;5341;47.606;7.576;2022-11-23T02:33:47;5.88;;;3.00;;
10586;SDS011;5341;47.606;7.576;2022-11-23T02:39:08;5.47;;;3.00;;
10586;SDS011;5341;47.606;7.576;2022-11-23T02:41:40;4.93;;;2.85;;
10586;SDS011;5341;47.606;7.576;2022-11-23T02:44:21;3.83;;;2.72;;
10586;SDS011;5341;47.606;7.576;2022-11-23T02:47:05;5.45;;;3.10;;
10586;SDS011;5341;47.606;7.576;2022-11-23T02:49:35;5.90;;;2.90;;
10586;SDS011;5341;47.606;7.576;2022-11-23T02:52:04;6.72;;;2.92;;
10586;SDS011;5341;47.606;7.576;2022-11-23T02:54:34;4.10;;;2.58;;
10586;SDS011;5341;47.606;7.576;2022-11-23T02:57:04;4.78;;;2.50;;
10586;SDS011;5341;47.606;7.576;2022-11-23T02:59:32;5.25;;;2.67;;
10586;SDS011;5341;47.606;7.576;2022-11-23T03:02:05;4.40;;;2.60;;
10586;SDS011;5341;47.606;7.576;2022-11-23T03:04:36;5.60;;;2.90;;
10586;SDS011;5341;47.606;7.576;2022-11-23T03:07:04;6.88;;;2.80;;
10586;SDS011;5341;47.606;7.576;2022-11-23T03:09:32;4.82;;;2.97;;
10586;SDS011;5341;47.606;7.576;2022-11-23T03:12:01;4.35;;;2.55;;
10586;SDS011;5341;47.606;7.576;2022-11-23T03:14:30;4.47;;;2.95;;
10586;SDS011;5341;47.606;7.576;2022-11-23T03:16:59;3.95;;;2.53;;
10586;SDS011;5341;47.606;7.576;2022-11-23T03:19:33;6.70;;;3.33;;
10586;SDS011;5341;47.606;7.576;2022-11-23T03:22:11;6.75;;;3.05;;
10586;SDS011;5341;47.606;7.576;2022-11-23T03:24:39;4.68;;;2.75;;
10586;SDS011;5341;47.606;7.576;2022-11-23T03:27:12;9.73;;;3.20;;
10586;SDS011;5341;47.606;7.576;2022-11-23T03:29:44;5.85;;;3.00;;
10586;SDS011;5341;47.606;7.576;2022-11-23T03:32:17;7.07;;;2.88;;
10586;SDS011;5341;47.606;7.576;2022-11-23T03:34:49;6.20;;;3.35;;
10586;SDS011;5341;47.606;7.576;2022-11-23T03:37:24;5.05;;;3.50;;
10586;SDS011;5341;47.606;7.576;2022-11-23T03:40:14;8.18;;;3.78;;
10586;SDS011;5341;47.606;7.576;2022-11-23T03:43:03;4.32;;;2.80;;
10586;SDS011;5341;47.606;7.576;2022-11-23T03:45:33;4.75;;;3.03;;
10586;SDS011;5341;47.606;7.576;2022-11-23T03:48:04;6.53;;;3.13;;
10586;SDS011;5341;47.606;7.576;2022-11-23T03:50:35;8.30;;;3.00;;
10586;SDS011;5341;47.606;7.576;2022-11-23T03:53:03;5.75;;;3.15;;
10586;SDS011;5341;47.606;7.576;2022-11-23T03:55:33;5.13;;;3.00;;
10586;SDS011;5341;47.606;7.576;2022-11-23T03:58:03;6.72;;;3.40;;
10586;SDS011;5341;47.606;7.576;2022-11-23T04:00:36;8.95;;;3.30;;
10586;SDS011;5341;47.606;7.576;2022-11-23T04:03:05;5.28;;;3.05;;
10586;SDS011;5341;47.606;7.576;2022-11-23T04:05:55;5.38;;;3.03;;
10586;SDS011;5341;47.606;7.576;2022-11-23T04:08:44;4.85;;;2.75;;
10586;SDS011;5341;47.606;7.576;2022-11-23T04:11:50;4.85;;;2.95;;
10586;SDS011;5341;47.606;7.576;2022-11-23T04:14:21;6.00;;;2.80;;
10586;SDS011;5341;47.606;7.576;2022-11-23T04:16:56;3.80;;;2.72;;
10586;SDS011;5341;47.606;7.576;2022-11-23T04:19:27;3.63;;;2.30;;
10586;SDS011;5341;47.606;7.576;2022-11-23T04:21:55;4.25;;;2.63;;
10586;SDS011;5341;47.606;7.576;2022-11-23T04:24:24;3.90;;;2.40;;
10586;SDS011;5341;47.606;7.576;2022-11-23T04:26:55;4.75;;;2.50;;
10586;SDS011;5341;47.606;7.576;2022-11-23T04:29:27;4.15;;;2.67;;
10586;SDS011;5341;47.606;7.576;2022-11-23T04:31:57;5.43;;;2.80;;
10586;SDS011;5341;47.606;7.576;2022-11-23T04:34:26;4.55;;;2.15;;
10586;SDS011;5341;47.606;7.576;2022-11-23T04:36:54;3.83;;;2.60;;
10586;SDS011;5341;47.606;7.576;2022-11-23T04:39:30;4.28;;;2.40;;
10586;SDS011;5341;47.606;7.576;2022-11-23T04:42:10;3.22;;;2.28;;
10586;SDS011;5341;47.606;7.576;2022-11-23T04:44:48;3.38;;;2.47;;
10586;SDS011;5341;47.606;7.576;2022-11-23T04:47:26;4.70;;;2.40;;
10586;SDS011;5341;47.606;7.576;2022-11-23T04:49:59;3.67;;;2.42;;
10586;SDS011;5341;47.606;7.576;2022-11-23T04:52:29;5.63;;;2.58;;
10586;SDS011;5341;47.606;7.576;2022-11-23T04:54:57;3.10;;;2.00;;
10586;SDS011;5341;47.606;7.576;2022-11-23T04:57:30;5.05;;;2.25;;
10586;SDS011;5341;47.606;7.576;2022-11-23T04:59:59;5.57;;;2.53;;
10586;SDS011;5341;47.606;7.576;2022-11-23T05:02:31;4.97;;;2.60;;
10586;SDS011;5341;47.606;7.576;2022-11-23T05:05:14;6.78;;;2.75;;
10586;SDS011;5341;47.606;7.576;2022-11-23T05:07:43;4.40;;;2.63;;
10586;SDS011;5341;47.606;7.576;2022-11-23T05:10:20;4.03;;;2.30;;
10586;SDS011;5341;47.606;7.576;2022-11-23T05:12:49;4.13;;;2.55;;
10586;SDS011;5341;47.606;7.576;2022-11-23T05:15:20;5.07;;;2.50;;
10586;SDS011;5341;47.606;7.576;2022-11-23T05:17:50;5.63;;;2.55;;
10586;SDS011;5341;47.606;7.576;2022-11-23T05:20:27;3.88;;;2.30;;
10586;SDS011;5341;47.606;7.576;2022-11-23T05:22:57;3.35;;;2.20;;
10586;SDS011;5341;47.606;7.576;2022-11-23T05:25:28;3.35;;;2.40;;
10586;SDS011;5341;47.606;7.576;2022-11-23T05:28:02;3.70;;;2.53;;
10586;SDS011;5341;47.606;7.576;2022-11-23T05:30:35;3.67;;;2.40;;
10586;SDS011;5341;47.606;7.576;2022-11-23T05:33:07;3.97;;;2.40;;
10586;SDS011;5341;47.606;7.576;2022-11-23T05:35:35;6.40;;;2.72;;
10586;SDS011;5341;47.606;7.576;2022-11-23T05:38:03;4.43;;;2.30;;
10586;SDS011;5341;47.606;7.576;2022-11-23T05:40:32;4.15;;;2.45;;
10586;SDS011;5341;47.606;7.576;2022-11-23T05:43:02;4.30;;;2.70;;
10586;SDS011;5341;47.606;7.576;2022-11-23T05:45:31;4.75;;;2.92;;
10586;SDS011;5341;47.606;7.576;2022-11-23T05:47:59;4.63;;;2.83;;
10586;SDS011;5341;47.606;7.576;2022-11-23T05:50:43;3.53;;;2.33;;
10586;SDS011;5341;47.606;7.576;2022-11-23T05:53:23;4.07;;;2.63;;
10586;SDS011;5341;47.606;7.576;2022-11-23T05:56:02;3.95;;;2.63;;
10586;SDS011;5341;47.606;7.576;2022-11-23T05:58:45;2.75;;;2.47;;
10586;SDS011;5341;47.606;7.576;2022-11-23T06:01:26;4.55;;;2.78;;
10586;SDS011;5341;47.606;7.576;2022-11-23T06:04:01;3.67;;;2.50;;
10586;SDS011;5341;47.606;7.576;2022-11-23T06:06:37;5.05;;;2.70;;
10586;SDS011;5341;47.606;7.576;2022-11-23T06:09:08;4.70;;;2.95;;
10586;SDS011;5341;47.606;7.576;2022-11-23T06:11:42;3.80;;;2.55;;
10586;SDS011;5341;47.606;7.576;2022-11-23T06:14:17;4.85;;;2.45;;
10586;SDS011;5341;47.606;7.576;2022-11-23T06:16:49;3.45;;;2.65;;
10586;SDS011;5341;47.606;7.576;2022-11-23T06:19:42;3.13;;;2.53;;
10586;SDS011;5341;47.606;7.576;2022-11-23T06:22:20;3.90;;;2.80;;
10586;SDS011;5341;47.606;7.576;2022-11-23T06:25:00;5.05;;;2.60;;
10586;SDS011;5341;47.606;7.576;2022-11-23T06:27:39;4.15;;;2.60;;
10586;SDS011;5341;47.606;7.576;2022-11-23T06:30:18;3.40;;;2.30;;
10586;SDS011;5341;47.606;7.576;2022-11-23T06:32:47;3.70;;;2.72;;
10586;SDS011;5341;47.606;7.576;2022-11-23T06:35:17;3.72;;;2.40;;
10586;SDS011;5341;47.606;7.576;2022-11-23T06:37:50;3.67;;;2.60;;
10586;SDS011;5341;47.606;7.576;2022-11-23T06:40:27;3.25;;;2.42;;
10586;SDS011;5341;47.606;7.576;2022-11-23T06:43:03;4.32;;;2.58;;
10586;SDS011;5341;47.606;7.576;2022-11-23T06:45:38;3.80;;;2.83;;
10586;SDS011;5341;47.606;7.576;2022-11-23T06:48:13;4.35;;;2.65;;
10586;SDS011;5341;47.606;7.576;2022-11-23T06:50:47;4.30;;;2.97;;
10586;SDS011;5341;47.606;7.576;2022-11-23T06:53:30;7.32;;;2.90;;
10586;SDS011;5341;47.606;7.576;2022-11-23T06:56:04;3.85;;;2.45;;
10586;SDS011;5341;47.606;7.576;2022-11-23T06:58:34;4.28;;;2.67;;
10586;SDS011;5341;47.606;7.576;2022-11-23T07:01:09;3.90;;;2.30;;
10586;SDS011;5341;47.606;7.576;2022-11-23T07:03:45;3.25;;;2.30;;
10586;SDS011;5341;47.606;7.576;2022-11-23T07:06:24;5.18;;;2.40;;
10586;SDS011;5341;47.606;7.576;2022-11-23T07:08:57;4.72;;;2.50;;
10586;SDS011;5341;47.606;7.576;2022-11-23T07:11:42;2.92;;;2.15;;
10586;SDS011;5341;47.606;7.576;2022-11-23T07:14:10;4.05;;;2.33;;
10586;SDS011;5341;47.606;7.576;2022-11-23T07:16:45;4.07;;;2.60;;
10586;SDS011;5341;47.606;7.576;2022-11-23T07:19:14;4.30;;;2.67;;
10586;SDS011;5341;47.606;7.576;2022-11-23T07:21:43;3.72;;;2.80;;
10586;SDS011;5341;47.606;7.576;2022-11-23T07:24:13;4.18;;;2.50;;
10586;SDS011;5341;47.606;7.576;2022-11-23T07:26:46;3.75;;;2.40;;
10586;SDS011;5341;47.606;7.576;2022-11-23T07:29:14;5.95;;;2.95;;
10586;SDS011;5341;47.606;7.576;2022-11-23T07:31:43;4.22;;;2.63;;
10586;SDS011;5341;47.606;7.576;2022-11-23T07:34:13;3.33;;;2.67;;
10586;SDS011;5341;47.606;7.576;2022-11-23T07:36:43;3.33;;;2.40;;
10586;SDS011;5341;47.606;7.576;2022-11-23T07:39:18;3.63;;;2.75;;
10586;SDS011;5341;47.606;7.576;2022-11-23T07:41:53;6.00;;;2.70;;
10586;SDS011;5341;47.606;7.576;2022-11-23T07:44:28;2.60;;;2.28;;
10586;SDS011;5341;47.606;7.576;2022-11-23T07:47:00;3.88;;;2.67;;
10586;SDS011;5341;47.606;7.576;2022-11-23T07:49:34;4.43;;;2.38;;
10586;SDS011;5341;47.606;7.576;2022-11-23T07:52:04;4.60;;;2.97;;
10586;SDS011;5341;47.606;7.576;2022-11-23T07:54:35;5.18;;;2.55;;
10586;SDS011;5341;47.606;7.576;2022-11-23T07:57:04;6.50;;;3.03;;
10586;SDS011;5341;47.606;7.576;2022-11-23T07:59:33;3.63;;;2.45;;
10586;SDS011;5341;47.606;7.576;2022-11-23T08:02:02;4.13;;;2.70;;
10586;SDS011;5341;47.606;7.576;2022-11-23T08:04:33;4.72;;;2.88;;
10586;SDS011;5341;47.606;7.576;2022-11-23T08:07:02;3.95;;;2.65;;
10586;SDS011;5341;47.606;7.576;2022-11-23T08:09:30;6.15;;;3.15;;
10586;SDS011;5341;47.606;7.576;2022-11-23T08:12:07;5.32;;;3.00;;
10586;SDS011;5341;47.606;7.576;2022-11-23T08:14:34;5.13;;;2.80;;
10586;SDS011;5341;47.606;7.576;2022-11-23T08:17:02;4.07;;;2.70;;
10586;SDS011;5341;47.606;7.576;2022-11-23T08:19:31;4.05;;;2.75;;
10586;SDS011;5341;47.606;7.576;2022-11-23T08:22:02;5.65;;;3.05;;
10586;SDS011;5341;47.606;7.576;2022-11-23T08:24:32;3.28;;;2.53;;
10586;SDS011;5341;47.606;7.576;2022-11-23T08:27:04;4.53;;;3.08;;
10586;SDS011;5341;47.606;7.576;2022-11-23T08:29:34;4.60;;;2.90;;
10586;SDS011;5341;47.606;7.576;2022-11-23T08:32:08;4.53;;;2.30;;
10586;SDS011;5341;47.606;7.576;2022-11-23T08:34:38;4.65;;;2.72;;
10586;SDS011;5341;47.606;7.576;2022-11-23T08:37:11;4.72;;;2.53;;
10586;SDS011;5341;47.606;7.576;2022-11-23T08:39:42;6.35;;;2.90;;
10586;SDS011;5341;47.606;7.576;2022-11-23T08:42:13;4.35;;;2.78;;
10586;SDS011;5341;47.606;7.576;2022-11-23T08:44:43;6.28;;;2.53;;
10586;SDS011;5341;47.606;7.576;2022-11-23T08:47:14;4.95;;;2.83;;
10586;SDS011;5341;47.606;7.576;2022-11-23T08:49:42;2.83;;;2.30;;
10586;SDS011;5341;47.606;7.576;2022-11-23T08:52:11;3.42;;;2.47;;
10586;SDS011;5341;47.606;7.576;2022-11-23T08:54:39;2.65;;;2.10;;
10586;SDS011;5341;47.606;7.576;2022-11-23T08:57:07;3.67;;;2.30;;
10586;SDS011;5341;47.606;7.576;2022-11-23T08:59:38;4.25;;;2.50;;
10586;SDS011;5341;47.606;7.576;2022-11-23T09:02:08;3.85;;;2.20;;
10586;SDS011;5341;47.606;7.576;2022-11-23T09:04:38;3.35;;;2.50;;
10586;SDS011;5341;47.606;7.576;2022-11-23T09:07:07;8.48;;;2.78;;
10586;SDS011;5341;47.606;7.576;2022-11-23T09:09:37;4.38;;;2.63;;
10586;SDS011;5341;47.606;7.576;2022-11-23T09:12:05;3.97;;;2.45;;
10586;SDS011;5341;47.606;7.576;2022-11-23T09:14:33;4.03;;;2.47;;
10586;SDS011;5341;47.606;7.576;2022-11-23T09:17:04;4.97;;;2.55;;
10586;SDS011;5341;47.606;7.576;2022-11-23T09:19:34;3.60;;;2.70;;
10586;SDS011;5341;47.606;7.576;2022-11-23T09:22:02;5.07;;;2.80;;
10586;SDS011;5341;47.606;7.576;2022-11-23T09:24:32;5.53;;;2.80;;
10586;SDS011;5341;47.606;7.576;2022-11-23T09:27:00;3.88;;;2.60;;
10586;SDS011;5341;47.606;7.576;2022-11-23T09:29:28;4.20;;;2.50;;
10586;SDS011;5341;47.606;7.576;2022-11-23T09:31:56;4.53;;;3.13;;
10586;SDS011;5341;47.606;7.576;2022-11-23T09:34:27;4.63;;;3.05;;
10586;SDS011;5341;47.606;7.576;2022-11-23T09:36:56;4.65;;;2.90;;
10586;SDS011;5341;47.606;7.576;2022-11-23T09:39:24;5.10;;;2.70;;
10586;SDS011;5341;47.606;7.576;2022-11-23T09:42:04;4.13;;;2.40;;
10586;SDS011;5341;47.606;7.576;2022-11-23T09:47:43;6.95;;;2.38;;
10586;SDS011;5341;47.606;7.576;2022-11-23T09:50:33;4.43;;;2.13;;
10586;SDS011;5341;47.606;7.576;2022-11-23T09:53:13;3.80;;;2.40;;
10586;SDS011;5341;47.606;7.576;2022-11-23T09:55:46;2.80;;;2.13;;
10586;SDS011;5341;47.606;7.576;2022-11-23T09:58:17;5.70;;;2.65;;
10586;SDS011;5341;47.606;7.576;2022-11-23T10:00:50;8.52;;;2.55;;
10586;SDS011;5341;47.606;7.576;2022-11-23T10:03:28;3.88;;;2.42;;
10586;SDS011;5341;47.606;7.576;2022-11-23T10:06:11;5.35;;;2.38;;
10586;SDS011;5341;47.606;7.576;2022-11-23T10:08:51;4.15;;;2.17;;
10586;SDS011;5341;47.606;7.576;2022-11-23T10:11:47;3.33;;;2.15;;
10586;SDS011;5341;47.606;7.576;2022-11-23T10:14:32;5.43;;;2.17;;
10586;SDS011;5341;47.606;7.576;2022-11-23T10:17:08;4.22;;;2.10;;
10586;SDS011;5341;47.606;7.576;2022-11-23T10:19:46;5.28;;;1.98;;
10586;SDS011;5341;47.606;7.576;2022-11-23T10:22:28;4.32;;;2.17;;
10586;SDS011;5341;47.606;7.576;2022-11-23T10:25:00;3.97;;;2.08;;
10586;SDS011;5341;47.606;7.576;2022-11-23T10:27:43;3.60;;;1.92;;
10586;SDS011;5341;47.606;7.576;2022-11-23T10:30:13;3.80;;;2.00;;
10586;SDS011;5341;47.606;7.576;2022-11-23T10:32:52;4.00;;;2.10;;
10586;SDS011;5341;47.606;7.576;2022-11-23T10:35:33;2.45;;;1.92;;
10586;SDS011;5341;47.606;7.576;2022-11-23T10:38:15;3.67;;;2.30;;
10586;SDS011;5341;47.606;7.576;2022-11-23T10:40:51;3.45;;;1.90;;
10586;SDS011;5341;47.606;7.576;2022-11-23T10:43:27;5.53;;;2.10;;
10586;SDS011;5341;47.606;7.576;2022-11-23T10:51:49;3.05;;;1.98;;
10586;SDS011;5341;47.606;7.576;2022-11-23T10:54:26;3.30;;;1.90;;
10586;SDS011;5341;47.606;7.576;2022-11-23T10:56:57;3.08;;;1.90;;
10586;SDS011;5341;47.606;7.576;2022-11-23T10:59:30;3.17;;;1.98;;
10586;SDS011;5341;47.606;7.576;2022-11-23T11:04:46;2.58;;;1.92;;
10586;SDS011;5341;47.606;7.576;2022-11-23T11:07:21;3.90;;;1.77;;
10586;SDS011;5341;47.606;7.576;2022-11-23T11:09:55;4.72;;;1.70;;
10586;SDS011;5341;47.606;7.576;2022-11-23T11:12:26;2.25;;;1.70;;
10586;SDS011;5341;47.606;7.576;2022-11-23T11:14:58;4.25;;;2.00;;
10586;SDS011;5341;47.606;7.576;2022-11-23T11:17:32;3.00;;;1.80;;
10586;SDS011;5341;47.606;7.576;2022-11-23T11:20:23;3.67;;;1.58;;
10586;SDS011;5341;47.606;7.576;2022-11-23T11:22:58;2.45;;;1.60;;
10586;SDS011;5341;47.606;7.576;2022-11-23T11:25:31;3.80;;;1.60;;
10586;SDS011;5341;47.606;7.576;2022-11-23T11:28:04;2.83;;;1.80;;
10586;SDS011;5341;47.606;7.576;2022-11-23T11:30:47;2.20;;;1.40;;
10586;SDS011;5341;47.606;7.576;2022-11-23T11:33:28;2.28;;;1.40;;
10586;SDS011;5341;47.606;7.576;2022-11-23T11:36:09;1.80;;;1.23;;
10586;SDS011;5341;47.606;7.576;2022-11-23T11:38:43;1.80;;;1.10;;
10586;SDS011;5341;47.606;7.576;2022-11-23T11:41:21;2.00;;;1.10;;
10586;SDS011;5341;47.606;7.576;2022-11-23T11:43:54;2.67;;;1.27;;
10586;SDS011;5341;47.606;7.576;2022-11-23T11:46:26;2.45;;;1.50;;
10586;SDS011;5341;47.606;7.576;2022-11-23T11:49:02;2.63;;;1.05;;
10586;SDS011;5341;47.606;7.576;2022-11-23T11:51:37;2.40;;;1.40;;
10586;SDS011;5341;47.606;7.576;2022-11-23T11:54:11;2.85;;;1.77;;
10586;SDS011;5341;47.606;7.576;2022-11-23T11:56:53;2.58;;;1.60;;
10586;SDS011;5341;47.606;7.576;2022-11-23T11:59:30;2.50;;;1.67;;
10586;SDS011;5341;47.606;7.576;2022-11-23T12:02:14;3.10;;;1.90;;
10586;SDS011;5341;47.606;7.576;2022-11-23T12:04:48;2.90;;;1.60;;
10586;SDS011;5341;47.606;7.576;2022-11-23T12:07:25;2.45;;;1.52;;
10586;SDS011;5341;47.606;7.576;2022-11-23T12:10:00;3.55;;;1.70;;
10586;SDS011;5341;47.606;7.576;2022-11-23T12:12:38;2.88;;;1.70;;
10586;SDS011;5341;47.606;7.576;2022-11-23T12:15:08;2.42;;;1.60;;
10586;SDS011;5341;47.606;7.576;2022-11-23T12:21:14;3.70;;;2.08;;
10586;SDS011;5341;47.606;7.576;2022-11-23T12:23:57;2.25;;;1.60;;
10586;SDS011;5341;47.606;7.576;2022-11-23T12:26:36;3.42;;;1.60;;
10586;SDS011;5341;47.606;7.576;2022-11-23T12:29:32;3.60;;;1.98;;
10586;SDS011;5341;47.606;7.576;2022-11-23T12:32:30;2.50;;;1.65;;
10586;SDS011;5341;47.606;7.576;2022-11-23T12:35:22;2.72;;;1.60;;
10586;SDS011;5341;47.606;7.576;2022-11-23T12:38:12;3.33;;;1.70;;
10586;SDS011;5341;47.606;7.576;2022-11-23T12:41:04;2.92;;;1.65;;
10586;SDS011;5341;47.606;7.576;2022-11-23T12:43:44;2.28;;;1.48;;
10586;SDS011;5341;47.606;7.576;2022-11-23T12:46:33;2.97;;;1.70;;
10586;SDS011;5341;47.606;7.576;2022-11-23T12:49:16;5.93;;;2.05;;
10586;SDS011;5341;47.606;7.576;2022-11-23T12:51:57;6.03;;;2.10;;
10586;SDS011;5341;47.606;7.576;2022-11-23T12:54:41;6.38;;;2.25;;
10586;SDS011;5341;47.606;7.576;2022-11-23T12:57:19;4.63;;;2.10;;
10586;SDS011;5341;47.606;7.576;2022-11-23T12:59:55;2.70;;;1.60;;
10586;SDS011;5341;47.606;7.576;2022-11-23T13:11:42;2.53;;;1.70;;
10586;SDS011;5341;47.606;7.576;2022-11-23T13:14:29;3.42;;;1.50;;
10586;SDS011;5341;47.606;7.576;2022-11-23T13:17:16;3.30;;;1.90;;
10586;SDS011;5341;47.606;7.576;2022-11-23T13:20:00;2.67;;;1.88;;
10586;SDS011;5341;47.606;7.576;2022-11-23T13:22:41;3.83;;;1.90;;
10586;SDS011;5341;47.606;7.576;2022-11-23T13:25:24;2.97;;;1.80;;
10586;SDS011;5341;47.606;7.576;2022-11-23T13:27:59;2.35;;;1.70;;
10586;SDS011;5341;47.606;7.576;2022-11-23T13:30:30;8.90;;;1.83;;
10586;SDS011;5341;47.606;7.576;2022-11-23T13:33:22;4.50;;;1.83;;
10586;SDS011;5341;47.606;7.576;2022-11-23T13:35:58;3.35;;;1.63;;
10586;SDS011;5341;47.606;7.576;2022-11-23T13:38:38;4.82;;;1.80;;
10586;SDS011;5341;47.606;7.576;2022-11-23T13:44:26;4.63;;;1.63;;
10586;SDS011;5341;47.606;7.576;2022-11-23T13:47:02;5.70;;;1.70;;
10586;SDS011;5341;47.606;7.576;2022-11-23T13:49:50;2.58;;;1.73;;
10586;SDS011;5341;47.606;7.576;2022-11-23T13:52:34;4.22;;;1.80;;
10586;SDS011;5341;47.606;7.576;2022-11-23T13:55:17;4.22;;;1.52;;
10586;SDS011;5341;47.606;7.576;2022-11-23T14:00:53;3.10;;;1.60;;
10586;SDS011;5341;47.606;7.576;2022-11-23T14:09:12;2.78;;;1.40;;
10586;SDS011;5341;47.606;7.576;2022-11-23T14:11:56;4.15;;;1.48;;
10586;SDS011;5341;47.606;7.576;2022-11-23T14:14:42;1.73;;;1.33;;
10586;SDS011;5341;47.606;7.576;2022-11-23T14:17:28;3.65;;;1.58;;
10586;SDS011;5341;47.606;7.576;2022-11-23T14:23:33;3.00;;;1.42;;
10586;SDS011;5341;47.606;7.576;2022-11-23T14:26:19;3.35;;;1.73;;
10586;SDS011;5341;47.606;7.576;2022-11-23T14:32:00;1.77;;;1.60;;
10586;SDS011;5341;47.606;7.576;2022-11-23T14:34:49;2.30;;;1.45;;
10586;SDS011;5341;47.606;7.576;2022-11-23T14:37:34;3.88;;;1.45;;
10586;SDS011;5341;47.606;7.576;2022-11-23T14:40:16;2.45;;;1.38;;
10586;SDS011;5341;47.606;7.576;2022-11-23T14:42:53;2.03;;;1.60;;
10586;SDS011;5341;47.606;7.576;2022-11-23T14:45:23;3.33;;;1.52;;
10586;SDS011;5341;47.606;7.576;2022-11-23T14:51:00;2.40;;;1.45;;
10586;SDS011;5341;47.606;7.576;2022-11-23T14:53:32;2.08;;;1.27;;
10586;SDS011;5341;47.606;7.576;2022-11-23T14:56:02;7.50;;;1.88;;
10586;SDS011;5341;47.606;7.576;2022-11-23T14:58:31;4.93;;;1.40;;
10586;SDS011;5341;47.606;7.576;2022-11-23T15:01:01;2.80;;;1.45;;
10586;SDS011;5341;47.606;7.576;2022-11-23T15:03:30;6.80;;;1.73;;
10586;SDS011;5341;47.606;7.576;2022-11-23T15:06:02;3.38;;;1.60;;
10586;SDS011;5341;47.606;7.576;2022-11-23T15:08:40;1.95;;;1.30;;
10586;SDS011;5341;47.606;7.576;2022-11-23T15:11:13;2.75;;;1.50;;
10586;SDS011;5341;47.606;7.576;2022-11-23T15:13:47;2.47;;;1.50;;
10586;SDS011;5341;47.606;7.576;2022-11-23T15:16:17;2.20;;;1.40;;
10586;SDS011;5341;47.606;7.576;2022-11-23T15:18:47;2.53;;;1.70;;
10586;SDS011;5341;47.606;7.576;2022-11-23T15:21:20;2.00;;;1.48;;
10586;SDS011;5341;47.606;7.576;2022-11-23T15:23:51;3.15;;;1.60;;
10586;SDS011;5341;47.606;7.576;2022-11-23T15:26:22;4.57;;;1.77;;
10586;SDS011;5341;47.606;7.576;2022-11-23T15:28:54;4.57;;;1.75;;
10586;SDS011;5341;47.606;7.576;2022-11-23T15:31:26;2.65;;;1.60;;
10586;SDS011;5341;47.606;7.576;2022-11-23T15:33:57;4.15;;;1.70;;
10586;SDS011;5341;47.606;7.576;2022-11-23T15:36:31;2.72;;;1.73;;
10586;SDS011;5341;47.606;7.576;2022-11-23T15:39:04;4.18;;;1.92;;
10586;SDS011;5341;47.606;7.576;2022-11-23T15:41:35;4.45;;;1.83;;
10586;SDS011;5341;47.606;7.576;2022-11-23T15:44:14;2.97;;;1.60;;
10586;SDS011;5341;47.606;7.576;2022-11-23T15:46:45;3.25;;;1.60;;
10586;SDS011;5341;47.606;7.576;2022-11-23T15:49:15;3.95;;;1.60;;
10586;SDS011;5341;47.606;7.576;2022-11-23T15:51:52;4.32;;;2.13;;
10586;SDS011;5341;47.606;7.576;2022-11-23T15:54:37;3.58;;;1.77;;
10586;SDS011;5341;47.606;7.576;2022-11-23T15:57:06;2.83;;;1.80;;
10586;SDS011;5341;47.606;7.576;2022-11-23T15:59:41;2.83;;;1.90;;
10586;SDS011;5341;47.606;7.576;2022-11-23T16:02:13;7.50;;;3.05;;
10586;SDS011;5341;47.606;7.576;2022-11-23T16:04:44;3.15;;;2.60;;
10586;SDS011;5341;47.606;7.576;2022-11-23T16:07:18;3.35;;;2.20;;
10586;SDS011;5341;47.606;7.576;2022-11-23T16:09:49;7.32;;;2.60;;
10586;SDS011;5341;47.606;7.576;2022-11-23T16:12:33;4.65;;;2.70;;
10586;SDS011;5341;47.606;7.576;2022-11-23T16:15:31;3.88;;;2.50;;
10586;SDS011;5341;47.606;7.576;2022-11-23T16:18:21;4.95;;;3.25;;
10586;SDS011;5341;47.606;7.576;2022-11-23T16:20:53;5.63;;;3.97;;
10586;SDS011;5341;47.606;7.576;2022-11-23T16:23:35;4.57;;;3.75;;
10586;SDS011;5341;47.606;7.576;2022-11-23T16:26:14;6.13;;;4.65;;
10586;SDS011;5341;47.606;7.576;2022-11-23T16:28:48;5.18;;;3.90;;
10586;SDS011;5341;47.606;7.576;2022-11-23T16:31:25;7.55;;;4.30;;